Terminal Aerodrome Forecast
Issued by NWS Goodland, KS

Home | Current Version | Previous Version | Text Only | Print | Product List | Glossary On
Versions: 1 2 3 4 5 6 7 8 9 10 11 12 13 14 15 16 17 18 19 20
000
FTUS43 KGLD 031140
TAFGLD
TAF
KGLD 031140Z 0312/0412 VRB06KT P6SM VCTS BKN060CB
     FM031600 13006KT P6SM SCT060 SCT200
     FM040000 15008KT P6SM VCTS BKN060CB
     FM040600 17010KT P6SM SCT060 BKN120=

USA.gov is the U.S. government's official web portal to all federal, state and local government web resources and services.